Medkon Istanbul — 3EZT3 — position and weather

sailwx.info

Track history (hours):
 
Tides and Currents Weather Stations Pressure Air Temp Water Temp Dewpoint Dewpoint Depression Visibility Wind Speed Wind Dir Waves Ship Positions

Medkon Istanbul

Last reported at 2018-Feb-04 20:33 UTC. Time now 2018-Feb-25 08:09 UTC.
Position N 32°53' E 029°00'.
Warning: this ship's position is 20 days out of date.

Length 100 m; draft 6.8 m.

Type: Ship. MMSI: 374819000.

Date/timePositionNaut miles runAvg speedWind from/ knotsBaromVisibWave heightAir tempDewpointWater temp
2018-Feb-04 20:33N 32°53' E 029°00'3310.7
2018-Feb-04 17:29N 32°23' E 029°15'  
2018-Jan-29 20:22N 40°26' E 028°60'3 9.6
2018-Jan-29 20:00N 40°25' E 029°04'0 0.4
2018-Jan-29 19:27N 40°25' E 029°05'0 0.0
2018-Jan-29 18:57N 40°25' E 029°05'0 0.0
2018-Jan-29 18:27N 40°25' E 029°05'0 0.0
2018-Jan-29 17:57N 40°25' E 029°05'0 0.0
2018-Jan-29 16:33N 40°25' E 029°05'0 0.0
2018-Jan-29 16:21N 40°25' E 029°05'0 0.0
2018-Jan-29 15:57N 40°25' E 029°05'0 0.0
2018-Jan-29 14:27N 40°25' E 029°05'0 0.0
2018-Jan-29 13:51N 40°25' E 029°05'0 0.0
2018-Jan-29 13:21N 40°25' E 029°05'0 0.0
2018-Jan-29 12:51N 40°25' E 029°05'0 0.0
2018-Jan-29 12:26N 40°25' E 029°05'2 3.0
2018-Jan-29 11:46N 40°25' E 029°02'15 6.1
2018-Jan-29 09:16N 40°38' E 028°50'310.1
2018-Jan-29 08:57N 40°39' E 028°54'4 9.6
2018-Jan-29 08:29N 40°41' E 028°59'5 9.1
2018-Jan-29 07:59N 40°42' E 029°05'5 9.5
2018-Jan-29 07:30N 40°43' E 029°11'5 9.8
2018-Jan-29 07:00N 40°44' E 029°17'510.0
2018-Jan-29 06:28N 40°45' E 029°24'510.1
2018-Jan-29 05:58N 40°45' E 029°31'7 9.6
2018-Jan-29 05:15N 40°45' E 029°40'2 0.3
2018-Jan-28 21:50N 40°46' E 029°42'1 3.8
2018-Jan-28 21:30N 40°46' E 029°41'6 6.8
2018-Jan-28 20:39N 40°45' E 029°33'211.7
2018-Jan-28 20:30N 40°45' E 029°31'610.7
2018-Jan-28 19:58N 40°44' E 029°24'4 8.6
2018-Jan-28 19:30N 40°44' E 029°19'4 8.7
2018-Jan-28 19:00N 40°45' E 029°13'4 8.4
2018-Jan-28 18:30N 40°46' E 029°08'4 8.8
2018-Jan-28 18:00N 40°47' E 029°02'5 9.2
2018-Jan-28 17:30N 40°48' E 028°56'207 4.4
2018-Jan-26 18:33N 37°59' E 026°22'1 9.6
2018-Jan-26 18:28N 37°59' E 026°23'4 9.5
2018-Jan-26 18:01N 37°54' E 026°24'9 9.7
2018-Jan-26 17:06N 37°47' E 026°29'4 9.2
2018-Jan-26 16:44N 37°43' E 026°31'2 8.9
2018-Jan-26 16:29N 37°42' E 026°32'4 8.3
2018-Jan-26 16:00N 37°38' E 026°36'12 9.5
2018-Jan-26 14:44N 37°30' E 026°46'2 9.8
2018-Jan-26 14:30N 37°28' E 026°48'7 9.6
2018-Jan-26 13:46N 37°22' E 026°53'  
Track history (hours):
 
Tides and Currents Weather Stations Pressure Air Temp Water Temp Dewpoint Dewpoint Depression Visibility Wind Speed Wind Dir Waves Ship Positions

Medkon Istanbul

Last reported at 2018-Feb-04 20:33 UTC. Time now 2018-Feb-25 08:09 UTC.
Position N 32°53' E 029°00'.
Warning: this ship's position is 20 days out of date.

Length 100 m; draft 6.8 m.

Type: Ship. MMSI: 374819000.

Date/timePositionNaut miles runAvg speedWind from/ knotsBaromVisibWave heightAir tempDewpointWater temp
2018-Feb-04 20:33N 32°53' E 029°00'3310.7
2018-Feb-04 17:29N 32°23' E 029°15'  
2018-Jan-29 20:22N 40°26' E 028°60'3 9.6
2018-Jan-29 20:00N 40°25' E 029°04'0 0.4
2018-Jan-29 19:27N 40°25' E 029°05'0 0.0
2018-Jan-29 18:57N 40°25' E 029°05'0 0.0
2018-Jan-29 18:27N 40°25' E 029°05'0 0.0
2018-Jan-29 17:57N 40°25' E 029°05'0 0.0
2018-Jan-29 16:33N 40°25' E 029°05'0 0.0
2018-Jan-29 16:21N 40°25' E 029°05'0 0.0
2018-Jan-29 15:57N 40°25' E 029°05'0 0.0
2018-Jan-29 14:27N 40°25' E 029°05'0 0.0
2018-Jan-29 13:51N 40°25' E 029°05'0 0.0
2018-Jan-29 13:21N 40°25' E 029°05'0 0.0
2018-Jan-29 12:51N 40°25' E 029°05'0 0.0
2018-Jan-29 12:26N 40°25' E 029°05'2 3.0
2018-Jan-29 11:46N 40°25' E 029°02'15 6.1
2018-Jan-29 09:16N 40°38' E 028°50'310.1
2018-Jan-29 08:57N 40°39' E 028°54'4 9.6
2018-Jan-29 08:29N 40°41' E 028°59'5 9.1
2018-Jan-29 07:59N 40°42' E 029°05'5 9.5
2018-Jan-29 07:30N 40°43' E 029°11'5 9.8
2018-Jan-29 07:00N 40°44' E 029°17'510.0
2018-Jan-29 06:28N 40°45' E 029°24'510.1
2018-Jan-29 05:58N 40°45' E 029°31'7 9.6
2018-Jan-29 05:15N 40°45' E 029°40'2 0.3
2018-Jan-28 21:50N 40°46' E 029°42'1 3.8
2018-Jan-28 21:30N 40°46' E 029°41'6 6.8
2018-Jan-28 20:39N 40°45' E 029°33'211.7
2018-Jan-28 20:30N 40°45' E 029°31'610.7
2018-Jan-28 19:58N 40°44' E 029°24'4 8.6
2018-Jan-28 19:30N 40°44' E 029°19'4 8.7
2018-Jan-28 19:00N 40°45' E 029°13'4 8.4
2018-Jan-28 18:30N 40°46' E 029°08'4 8.8
2018-Jan-28 18:00N 40°47' E 029°02'5 9.2
2018-Jan-28 17:30N 40°48' E 028°56'207 4.4
2018-Jan-26 18:33N 37°59' E 026°22'1 9.6
2018-Jan-26 18:28N 37°59' E 026°23'4 9.5
2018-Jan-26 18:01N 37°54' E 026°24'9 9.7
2018-Jan-26 17:06N 37°47' E 026°29'4 9.2
2018-Jan-26 16:44N 37°43' E 026°31'2 8.9
2018-Jan-26 16:29N 37°42' E 026°32'4 8.3
2018-Jan-26 16:00N 37°38' E 026°36'12 9.5
2018-Jan-26 14:44N 37°30' E 026°46'2 9.8
2018-Jan-26 14:30N 37°28' E 026°48'7 9.6
2018-Jan-26 13:46N 37°22' E 026°53'  

Dump ship's entire track history